Tous les Résultats et les Classements des Compétitions E.S.F.

MEMORIAL ESF MORILLON - GRAND MASSIF, le 18/03/2017

Total des 2 Manches



Clt. Identité Code E.S.F. S. An Cat Tps1 Clt1 Tps2 Clt2 Temps
1 DUBOURGEAL ANTOINE MON22518 ESF COMBLOUX M 1982 VH1 43.02 1 41.79 1 1:24.81
2 DENARIE LUCAS MON42374 ESF SAMOENS LES SAIX M 1997 SH 46.28 3 44.31 2 1:30.59
3 BONANO LIONEL MON15655 E.N.S.A. M 1974 VH2 46.59 4 44.97 4 1:31.56
4 MOGUEROU ALEXIS MON30531 ESF VALLEE VERTE (LA) M 1989 SH 47.23 6 44.80 3 1:32.03
5 PETITTI JEROME MON14653 ESF GETS (LES) M 1973 VH2 47.23 6 45.01 6 1:32.24
6 ODDONE CLEMENT MON41804 ESF VALLEE VERTE (LA) M 1996 SH 47.36 9 45.12 7 1:32.48
7 POENCIER CYRIL MON31387 ESF COMBLOUX M 1991 SH 47.82 13 44.99 5 1:32.81
8 JORAT SEBASTIEN MON40330 ESF SOMMAND MIEUSSY M 1993 SH 47.49 11 45.50 10 1:32.99
9 DEGOUT JEROME MON16833 ESF GETS (LES) M 1975 VH2 47.76 12 45.43 9 1:33.19
10 DUCREY ELSA MON41582 ESF COMBLOUX F 1995 SD 47.45 10 46.34 15 1:33.79
11 COUGOUREUX BENOIT MON43116 ESF MORILLON - GRAND MASSIF M 1997 SH 48.33 16 45.75 11 1:34.08
12 VAUDEY VALENTIN MON30873 ESF MORILLON - GRAND MASSIF M 1990 SH 48.18 14 46.25 14 1:34.43
13 JORAT ANTHONY MON30981 ESF SOMMAND MIEUSSY M 1990 SH 48.30 15 46.74 16 1:35.04
14 BETEMPS ANTHONY MON19282 ESF FLAINE M 1980 VH1 48.68 17 46.94 17 1:35.62
15 MARCHAND GUILLAUME MON40406 ESF CHATEL M 1993 SH 48.86 18 47.01 19 1:35.87
16 POENCIER PAUL MON7984 ESF COMBLOUX M 1960 VH5 49.62 21 46.94 17 1:36.56
17 SCURI NICOLAS MON26324 ESF SAMOENS LES SAIX M 1987 SH 49.87 23 47.93 22 1:37.80
18 PRESSET SYLVAIN MON13236 ESF MORILLON - GRAND MASSIF M 1972 VH3 50.74 31 47.11 20 1:37.85
19 FEIGE MARC MON13139 ESF MEGEVE M 1970 VH3 50.27 26 47.95 23 1:38.22
20 BALLESTO LUCAS MON41317 ESF SOMMAND MIEUSSY M 1995 SH 50.36 28 48.30 26 1:38.66
21 MILLERET CAROLE MON31093 ESF CHAMONIX F 1988 SD 50.35 27 48.33 27 1:38.68
22 VACHOUX STEPHANE MON10234 ESF ARACHES LES CARROZ M 1967 VH4 50.85 33 47.95 23 1:38.80
23 VESIN GILLES MON11613 ESF GETS (LES) M 1963 VH4 50.69 30 48.93 31 1:39.62
24 CHAGNY JULIEN MON41908 U.C.P.A. M 1981 VH1 50.75 32 48.88 30 1:39.63
25 NATHIE VICTORIEN MON43298 U.C.P.A. M 1995 SH 51.36 35 48.70 29 1:40.06
26 CRUZ LIONEL MON15527 ESF CHATEL M 1965 VH4 51.93 38 48.50 28 1:40.43
27 PIEDOY AURELIEN MON40395 ESF MORILLON - GRAND MASSIF M 1993 SH 50.55 29 49.92 32 1:40.47
28 CHAMBON FREDERIC MON16540 ESF SAISIES (LES) M 1972 VH3 51.47 36 50.04 33 1:41.51
29 ROUL JULIEN MON42800 U.C.P.A. M 1988 SH 51.72 37 50.49 35 1:42.21
30 OUVRIER BUFFET PHILIPPE MON20300 ESF SAMOENS LES SAIX M 1965 VH4 52.54 41 50.42 34 1:42.96
31 CLAVEL BENOIT MON30404 ESF SIXT FER A CHEVAL M 1971 VH3 52.19 40 50.80 37 1:42.99
32 KLUFTS THIERRY MON8276 ESF ARACHES LES CARROZ M 1959 VH5 53.34 45 50.60 36 1:43.94
33 DUC MARYSE MON10960 ESF SAISIES (LES) F 1968 D4 53.23 44 51.49 39 1:44.72
34 OLIVIER VINCENT MON13547 ESF BELLEFONTAINE M 1972 VH3 52.94 42 52.13 41 1:45.07
35 JACQUARD SALOME MON40391 ESF SOMMAND MIEUSSY F 1993 SD 53.91 47 51.41 38 1:45.32
36 REVEL AMANDINE MON24176 ESF MORILLON - GRAND MASSIF F 1985 D1 53.75 46 52.62 42 1:46.37
37 RICHARD DENIS MON20808 ESF MORILLON - GRAND MASSIF M 1958 VH5 54.77 50 52.05 40 1:46.82
38 GAUTHIER CAROLE MON12684 ESF GETS (LES) F 1969 D4 54.51 48 52.89 44 1:47.40
39 BERNE PAUL MON5792 ESF CLUSAZ (LA) M 1956 VH6 54.90 51 53.07 45 1:47.97
40 BOTTOLLIER LASQUIN LAURENT MON4815 ESF COMBLOUX M 1948 VH7 54.66 49 53.83 48 1:48.49
41 DUFOUR LISALINE MON42616 ESF PRAZ DE LYS F 1996 SD 55.53 54 53.22 46 1:48.75
42 ARNOD PRIN MAXIME MON269 ESF MEGEVE M 1949 VH7 55.28 53 53.80 47 1:49.08
43 WILQUIN BESSET LENA MON42542 ESF MORILLON - GRAND MASSIF F 1993 SD 55.10 52 54.04 49 1:49.14
44 FOUQUERAY MARINE MON31661 ESF MORILLON - GRAND MASSIF F 1991 SD 55.85 55 54.10 50 1:49.95
45 MOLINES ROMAIN MON42499 ESF FLAINE M 1996 SH 51.94 39 58.28 54 1:50.22
46 BULOZ OLIVIER MON11135 ESF ARACHES LES CARROZ M 1967 VH4 55.87 56 54.54 51 1:50.41
47 SOCQUET JUGLARD JEAN LOUIS MON2049 ESF COMBLOUX M 1953 VH6 56.73 57 54.60 52 1:51.33
48 LAUPER GILBERT MON6181 ESF PRAZ DE LYS M 1948 VH7 56.84 58 55.24 53 1:52.08
DAUMARIE ELLIOT FFS2687501 ESF MORILLON - GRAND MASSIF M 1998 SH ABD ABD ABD
CAVET ANDRE MON4013 ESF BRASSES (LES) M 1954 VH6 ABD 52.73 43 ABD
LEGER HUGO MON43668 ESF MORILLON - GRAND MASSIF M 1998 SH ABD ABD ABD
KLUFTS JEROME MON42910 ESF ARACHES LES CARROZ M 1997 SH ABD 48.29 25 ABD
AVOCAT GROS JULES MON43987 ESF MORILLON - GRAND MASSIF M 1998 SH ABD 46.09 12 ABD
RAYMOND LOIS MON31760 ESF SAMOENS LES SAIX M 1991 SH ABD 46.11 13 ABD
BUJARD PIERRE MON27097 ESF PRAZ DE LYS M 1988 SH ABD DSQ ABD
DEDENIS MAXIME MON32600 U.C.P.A. M 1985 SH 50.09 24 ABD ABD
DUPRAZ ANTOINE MON40093 ESF MORZINE M 1993 SH 45.37 2 ABD ABD
MICHAUD JULIEN MON31581 ESF GETS (LES) M 1991 SH 46.67 5 ABD ABD
CARRIER HERVE MON15530 ESF FLAINE M 1973 VH2 47.29 8 ABD ABD
CORDIER MATTHIEU MON43896 ESF MORILLON - GRAND MASSIF M 1998 SH ABD ABD ABD
POLONIA ALEXI MON42210 ESF MORILLON - GRAND MASSIF M 1996 SH ABD 45.13 8 ABD
VERNERET LUCIEN MON40157 ESF MORILLON - GRAND MASSIF M 1993 SH ABD 47.79 21 ABD
OUVRIER BUFFET FLORIE MON32171 ESF SAMOENS LES SAIX F 1992 SD 49.70 22 ABD ABD
LEGER CHARLOTTE MON42398 ESF MORILLON - GRAND MASSIF F 1994 SD 51.13 34 ABD ABD
COMTAT PIERRE ANDRE MON14091 ESF PRAZ DE LYS M 1972 VH3 49.49 20 ABD ABD
MAXIT JORIS MON40592 ESF CHATEL M 1989 SH 52.99 43 DSQ DSQ
PROST JEAN MICHEL MON22283 E.N.S.A. M 1983 SH ABS ABS ABS
COTTET MARIE MON41552 ESF GRANDE TERCHE (LA) F 1995 SD ABS - ABS
DUVERNEY PASCAL MON20857 ESF MORILLON - GRAND MASSIF M 1964 VH4 ABS - ABS
BERTHOUD DENIS MON1117 ESF CHATEL M 1944 VH7 ABS - ABS
DENARIE GILLES MON6115 ESF SAMOENS LES SAIX M 1954 VH6 ABS - ABS
TESSIER LAURENT MON18868 ESF ARACHES LES CARROZ M 1972 VH3 50.17 25 ABS ABS
CHAPRON PIERRE ELIE MON43985 ESF SAMOENS LES SAIX M 1998 SH ABS ABS ABS
DERUAZ ALAIN MON11796 ESF MANIGOD M 1958 VH5 ABS - ABS
DECORZENT NICOLAS MON21506 ESF GETS (LES) M 1981 VH1 49.07 19 ABS ABS